Morley, Tennessee
Current Conditions -  °F | °C
As of 4:46 AM on Monday 20 Oct 2014 (Local Time) from KOQT Reporting Station
Haze Haze  
Wind Chill: 45°   Ceiling: 100
Heat Index: 45°   Visibility: 5mi
Dew Point: 43°   Wind: 0mph
Humidity: 93%   Direction: NA
Pressure: 30.09"   Gusts: NA
Location:  36.3953°N, 84.1409°W
Report Text: KOQT 200846Z AUTO 00000KT 5SM BR BKN001 07/06 A3009 RMK AO2 T00720061
Loading
Personal Weather Stations






























Interactive Weather Map
Tropical Storm Tracking
New forecast layout! Learn more

10-Day Weather Forecast

Advertisements
Track Severe Weather on mobile